Flight Track Log - Related Links

Times and Time Zones

All times are in EDT time to prevent confusion due to time zone crossing. See the CPT1940 flight status page for this flight to view local times or setup timezone preferences in your user account.

Time Position Orientation Groundspeed Altitude Reporting Facility
EDT Latitude Longitude Course Direction KTS MPH feet Rate Location/Type
Wed 09:20:05 AM 42.9342 -106.4047 104° East 122 140 7,400  Level Denver Center
Wed 09:21:06 AM 42.9314 -106.3589 95° East 125 144 8,000 541 Climbing Denver Center
Wed 09:22:07 AM 42.9300 -106.3033 92° East 129 148 8,500 492 Climbing Denver Center
Wed 09:23:00 AM 42.8024 -106.1576 113° Southeast  Level Estimated
Wed 09:23:08 AM 42.9303 -106.2550 90° East 132 152 9,000  Level Denver Center
Wed 09:24:00 AM 42.7908 -106.0917 103° East  Level FlightAware Approximate
Wed 09:24:09 AM 42.9283 -106.2022 93° East 140 161 9,000  Level Denver Center
Wed 09:25:00 AM 42.7792 -106.0259 104° East  Level FlightAware Approximate
Wed 09:25:10 AM 42.9256 -106.1353 93° East 152 175 9,000  Level Denver Center
Wed 09:26:11 AM 42.9239 -106.0767 92° East 158 182 9,000  Level Denver Center
Wed 09:27:13 AM 42.9228 -106.0181 91° East 161 185 9,000  Level Denver Center
Wed 09:28:13 AM 42.9217 -105.9500 91° East 161 185 9,000  Level Denver Center
Wed 09:29:14 AM 42.9208 -105.8933 91° East 159 183 9,000  Level Denver Center
Wed 09:30:15 AM 42.9186 -105.8367 93° East 158 182 9,000  Level Denver Center
Wed 09:31:17 AM 42.8997 -105.7722 112° Southeast 161 185 9,000  Level Denver Center
Wed 09:32:18 AM 42.8797 -105.7181 117° Southeast 164 189 9,000  Level Denver Center
Wed 09:33:19 AM 42.8597 -105.6544 113° Southeast 165 190 9,000  Level Denver Center
Wed 09:34:20 AM 42.8419 -105.5997 114° Southeast 165 190 9,000  Level Denver Center
Wed 09:35:21 AM 42.8236 -105.5436 114° Southeast 167 192 9,000  Level Denver Center
Wed 09:36:22 AM 42.8025 -105.4789 114° Southeast 167 192 9,000  Level Denver Center
Wed 09:37:23 AM 42.7847 -105.4236 114° Southeast 168 193 9,000  Level Denver Center
Wed 09:38:24 AM 42.7672 -105.3675 113° Southeast 168 193 9,000  Level Denver Center
Wed 09:39:25 AM 42.7453 -105.3025 115° Southeast 169 194 9,000  Level Denver Center
Wed 09:40:26 AM 42.7275 -105.2458 113° Southeast 169 194 9,000  Level Denver Center
Wed 09:41:27 AM 42.7089 -105.1911 115° Southeast 168 193 9,000  Level Denver Center
Wed 09:42:28 AM 42.6875 -105.1256 114° Southeast 169 194 9,000  Level Denver Center
Wed 09:43:30 AM 42.6689 -105.0692 114° Southeast 170 196 9,000  Level Denver Center
Wed 09:44:31 AM 42.6469 -105.0031 114° Southeast 171 197 9,000  Level Denver Center
Wed 09:45:32 AM 42.6286 -104.9478 114° Southeast 170 196 9,000  Level Denver Center
Wed 09:46:33 AM 42.6097 -104.8917 115° Southeast 170 196 9,000  Level Denver Center
Wed 09:47:34 AM 42.5883 -104.8264 114° Southeast 170 196 9,000  Level Denver Center
Wed 09:48:35 AM 42.5692 -104.7697 115° Southeast 172 198 9,000  Level Denver Center
Wed 09:49:36 AM 42.5469 -104.7053 115° Southeast 171 197 9,000  Level Denver Center
Wed 09:50:38 AM 42.5281 -104.6503 115° Southeast 171 197 9,000  Level Denver Center
Wed 09:51:39 AM 42.5089 -104.5947 115° Southeast 172 198 9,000  Level Denver Center
Wed 09:52:40 AM 42.4731 -104.5408 132° Southeast 173 199 9,000  Level Denver Center
Wed 09:53:41 AM 42.4453 -104.4939 129° Southeast 171 197 9,000  Level Denver Center
Wed 09:54:43 AM 42.4122 -104.4389 129° Southeast 169 194 9,000 49 Level Denver Center
Wed 09:55:44 AM 42.3814 -104.3917 131° Southeast 172 198 9,100  Climbing Denver Center
Wed 09:56:45 AM 42.3450 -104.3358 131° Southeast 175 201 9,000 -49 Descending Denver Center
Wed 09:57:47 AM 42.3144 -104.2869 130° Southeast 177 204 9,000  Level Denver Center
Wed 09:58:48 AM 42.2850 -104.2386 129° Southeast 175 201 9,000  Level Denver Center
Wed 09:59:49 AM 42.2497 -104.1819 130° Southeast 176 203 9,000  Level Denver Center
Wed 10:00:51 AM 42.2183 -104.1336 131° Southeast 177 204 9,000  Level Denver Center
Wed 10:01:52 AM 42.1819 -104.0775 131° Southeast 179 206 9,000  Level Denver Center
Wed 10:02:54 AM 42.1508 -104.0289 131° Southeast 178 205 9,000  Level Denver Center
Wed 10:03:55 AM 42.1206 -103.9808 130° Southeast 177 204 9,000  Level Denver Center
Wed 10:04:57 AM 42.0847 -103.9239 130° Southeast 177 204 9,000  Level Denver Center
Wed 10:05:58 AM 42.0533 -103.8758 131° Southeast 178 205 9,000  Level Denver Center

Login

Don't have an account? Register now (free) for customized features, flight alerts, and more!